sensor_id;sensor_type;location;lat;lon;timestamp;temperature;humidity
28654;DHT22;24320;56.980;24.336;2023-07-13T00:00:31;16.00;99.90
28654;DHT22;24320;56.980;24.336;2023-07-13T00:02:59;16.10;99.90
28654;DHT22;24320;56.980;24.336;2023-07-13T00:05:26;16.10;99.90
28654;DHT22;24320;56.980;24.336;2023-07-13T00:07:54;16.20;99.90
28654;DHT22;24320;56.980;24.336;2023-07-13T00:10:22;16.20;99.90
28654;DHT22;24320;56.980;24.336;2023-07-13T00:12:49;16.30;99.90
28654;DHT22;24320;56.980;24.336;2023-07-13T00:15:21;16.30;99.90
28654;DHT22;24320;56.980;24.336;2023-07-13T00:17:53;16.30;99.90
28654;DHT22;24320;56.980;24.336;2023-07-13T00:20:22;16.30;99.90
28654;DHT22;24320;56.980;24.336;2023-07-13T00:22:52;16.30;99.90
28654;DHT22;24320;56.980;24.336;2023-07-13T00:25:21;16.30;99.90
28654;DHT22;24320;56.980;24.336;2023-07-13T00:27:51;16.30;99.90
28654;DHT22;24320;56.980;24.336;2023-07-13T00:30:18;16.50;99.90
28654;DHT22;24320;56.980;24.336;2023-07-13T00:32:45;16.50;99.90
28654;DHT22;24320;56.980;24.336;2023-07-13T00:35:14;16.50;99.90
28654;DHT22;24320;56.980;24.336;2023-07-13T00:37:42;16.50;99.90
28654;DHT22;24320;56.980;24.336;2023-07-13T00:40:11;16.50;99.90
28654;DHT22;24320;56.980;24.336;2023-07-13T00:42:40;16.50;99.90
28654;DHT22;24320;56.980;24.336;2023-07-13T00:47:55;16.40;99.90
28654;DHT22;24320;56.980;24.336;2023-07-13T00:50:23;16.40;99.90
28654;DHT22;24320;56.980;24.336;2023-07-13T00:52:53;16.40;99.90
28654;DHT22;24320;56.980;24.336;2023-07-13T00:55:22;16.30;99.90
28654;DHT22;24320;56.980;24.336;2023-07-13T00:57:49;16.30;99.90
28654;DHT22;24320;56.980;24.336;2023-07-13T01:00:16;16.30;99.90
28654;DHT22;24320;56.980;24.336;2023-07-13T01:02:45;16.30;99.90
28654;DHT22;24320;56.980;24.336;2023-07-13T01:05:18;16.30;99.90
28654;DHT22;24320;56.980;24.336;2023-07-13T01:07:48;16.30;99.90
28654;DHT22;24320;56.980;24.336;2023-07-13T01:10:16;16.30;99.90
28654;DHT22;24320;56.980;24.336;2023-07-13T01:12:44;16.30;99.90
28654;DHT22;24320;56.980;24.336;2023-07-13T01:18:07;16.30;99.90
28654;DHT22;24320;56.980;24.336;2023-07-13T01:20:35;16.30;99.90
28654;DHT22;24320;56.980;24.336;2023-07-13T01:23:08;16.30;99.90
28654;DHT22;24320;56.980;24.336;2023-07-13T01:25:36;16.30;99.90
28654;DHT22;24320;56.980;24.336;2023-07-13T01:28:05;16.30;99.90
28654;DHT22;24320;56.980;24.336;2023-07-13T01:30:32;16.30;99.90
28654;DHT22;24320;56.980;24.336;2023-07-13T01:32:59;16.20;99.90
28654;DHT22;24320;56.980;24.336;2023-07-13T01:35:26;16.20;99.90
28654;DHT22;24320;56.980;24.336;2023-07-13T01:37:53;16.20;99.90
28654;DHT22;24320;56.980;24.336;2023-07-13T01:40:21;16.20;99.90
28654;DHT22;24320;56.980;24.336;2023-07-13T01:42:50;16.20;99.90
28654;DHT22;24320;56.980;24.336;2023-07-13T01:45:17;16.20;99.90
28654;DHT22;24320;56.980;24.336;2023-07-13T01:47:44;16.20;99.90
28654;DHT22;24320;56.980;24.336;2023-07-13T01:50:11;16.20;99.90
28654;DHT22;24320;56.980;24.336;2023-07-13T01:52:38;16.20;99.90
28654;DHT22;24320;56.980;24.336;2023-07-13T01:55:06;16.20;99.90
28654;DHT22;24320;56.980;24.336;2023-07-13T01:57:33;16.20;99.90
28654;DHT22;24320;56.980;24.336;2023-07-13T02:00:03;16.30;99.90
28654;DHT22;24320;56.980;24.336;2023-07-13T02:02:31;16.40;99.90
28654;DHT22;24320;56.980;24.336;2023-07-13T02:04:58;16.30;99.90
28654;DHT22;24320;56.980;24.336;2023-07-13T02:07:26;16.40;99.90
28654;DHT22;24320;56.980;24.336;2023-07-13T02:09:52;16.40;99.90
28654;DHT22;24320;56.980;24.336;2023-07-13T02:12:20;16.40;99.90
28654;DHT22;24320;56.980;24.336;2023-07-13T02:14:47;16.40;99.90
28654;DHT22;24320;56.980;24.336;2023-07-13T02:17:14;16.40;99.90
28654;DHT22;24320;56.980;24.336;2023-07-13T02:19:42;16.40;99.90
28654;DHT22;24320;56.980;24.336;2023-07-13T02:22:09;16.50;99.90
28654;DHT22;24320;56.980;24.336;2023-07-13T02:24:36;16.50;99.90
28654;DHT22;24320;56.980;24.336;2023-07-13T02:27:05;16.60;99.90
28654;DHT22;24320;56.980;24.336;2023-07-13T02:29:32;16.60;99.90
28654;DHT22;24320;56.980;24.336;2023-07-13T02:31:59;16.70;99.90
28654;DHT22;24320;56.980;24.336;2023-07-13T02:34:26;16.70;99.90
28654;DHT22;24320;56.980;24.336;2023-07-13T02:36:53;16.70;99.90
28654;DHT22;24320;56.980;24.336;2023-07-13T02:39:20;16.70;99.90
28654;DHT22;24320;56.980;24.336;2023-07-13T02:41:47;16.70;99.90
28654;DHT22;24320;56.980;24.336;2023-07-13T02:44:14;16.80;99.90
28654;DHT22;24320;56.980;24.336;2023-07-13T02:46:42;16.80;99.90
28654;DHT22;24320;56.980;24.336;2023-07-13T02:49:09;16.80;99.90
28654;DHT22;24320;56.980;24.336;2023-07-13T02:51:36;16.80;99.90
28654;DHT22;24320;56.980;24.336;2023-07-13T02:54:04;16.90;99.90
28654;DHT22;24320;56.980;24.336;2023-07-13T02:56:32;16.90;99.90
28654;DHT22;24320;56.980;24.336;2023-07-13T02:58:59;17.00;99.90
28654;DHT22;24320;56.980;24.336;2023-07-13T03:01:26;17.00;99.90
28654;DHT22;24320;56.980;24.336;2023-07-13T03:03:53;17.00;99.90
28654;DHT22;24320;56.980;24.336;2023-07-13T03:06:20;17.10;99.90
28654;DHT22;24320;56.980;24.336;2023-07-13T03:08:48;17.20;99.90
28654;DHT22;24320;56.980;24.336;2023-07-13T03:11:19;17.20;99.90
28654;DHT22;24320;56.980;24.336;2023-07-13T03:13:47;17.30;99.90
28654;DHT22;24320;56.980;24.336;2023-07-13T03:16:16;17.30;99.90
28654;DHT22;24320;56.980;24.336;2023-07-13T03:18:46;17.40;99.90
28654;DHT22;24320;56.980;24.336;2023-07-13T03:21:14;17.40;99.90
28654;DHT22;24320;56.980;24.336;2023-07-13T03:23:42;17.40;99.90
28654;DHT22;24320;56.980;24.336;2023-07-13T03:26:12;17.40;99.90
28654;DHT22;24320;56.980;24.336;2023-07-13T03:28:41;17.30;99.90
28654;DHT22;24320;56.980;24.336;2023-07-13T03:31:24;17.30;99.90
28654;DHT22;24320;56.980;24.336;2023-07-13T03:33:51;17.30;99.90
28654;DHT22;24320;56.980;24.336;2023-07-13T03:36:25;17.20;99.90
28654;DHT22;24320;56.980;24.336;2023-07-13T03:38:54;17.20;99.90
28654;DHT22;24320;56.980;24.336;2023-07-13T03:41:23;17.20;99.90
28654;DHT22;24320;56.980;24.336;2023-07-13T03:43:51;17.20;99.90
28654;DHT22;24320;56.980;24.336;2023-07-13T03:46:18;17.20;99.90
28654;DHT22;24320;56.980;24.336;2023-07-13T03:48:47;17.20;99.90
28654;DHT22;24320;56.980;24.336;2023-07-13T03:51:15;17.20;99.90
28654;DHT22;24320;56.980;24.336;2023-07-13T03:53:44;17.20;99.90
28654;DHT22;24320;56.980;24.336;2023-07-13T03:56:11;17.20;99.90
28654;DHT22;24320;56.980;24.336;2023-07-13T03:58:40;17.20;99.90
28654;DHT22;24320;56.980;24.336;2023-07-13T04:01:09;17.20;99.90
28654;DHT22;24320;56.980;24.336;2023-07-13T04:03:37;17.20;99.90
28654;DHT22;24320;56.980;24.336;2023-07-13T04:06:30;17.20;99.90
28654;DHT22;24320;56.980;24.336;2023-07-13T04:08:59;17.10;99.90
28654;DHT22;24320;56.980;24.336;2023-07-13T04:11:29;17.10;99.90
28654;DHT22;24320;56.980;24.336;2023-07-13T04:13:58;17.10;99.90
28654;DHT22;24320;56.980;24.336;2023-07-13T04:16:26;17.10;99.90
28654;DHT22;24320;56.980;24.336;2023-07-13T04:18:53;17.10;99.90
28654;DHT22;24320;56.980;24.336;2023-07-13T04:21:22;17.10;99.90
28654;DHT22;24320;56.980;24.336;2023-07-13T04:23:49;17.10;99.90
28654;DHT22;24320;56.980;24.336;2023-07-13T04:26:16;17.20;99.90
28654;DHT22;24320;56.980;24.336;2023-07-13T04:28:43;17.20;99.90
28654;DHT22;24320;56.980;24.336;2023-07-13T04:31:10;17.30;99.90
28654;DHT22;24320;56.980;24.336;2023-07-13T04:33:38;17.40;99.90
28654;DHT22;24320;56.980;24.336;2023-07-13T04:36:05;17.50;99.90
28654;DHT22;24320;56.980;24.336;2023-07-13T04:38:32;17.50;99.90
28654;DHT22;24320;56.980;24.336;2023-07-13T04:41:05;17.60;99.90
28654;DHT22;24320;56.980;24.336;2023-07-13T04:43:32;17.70;99.90
28654;DHT22;24320;56.980;24.336;2023-07-13T04:46:11;17.90;99.90
28654;DHT22;24320;56.980;24.336;2023-07-13T04:48:39;18.10;99.90
28654;DHT22;24320;56.980;24.336;2023-07-13T04:51:07;18.20;99.90
28654;DHT22;24320;56.980;24.336;2023-07-13T04:53:34;18.40;99.90
28654;DHT22;24320;56.980;24.336;2023-07-13T04:56:02;18.60;99.90
28654;DHT22;24320;56.980;24.336;2023-07-13T04:58:30;18.80;99.90
28654;DHT22;24320;56.980;24.336;2023-07-13T05:01:05;19.00;99.90
28654;DHT22;24320;56.980;24.336;2023-07-13T05:03:33;19.20;99.90
28654;DHT22;24320;56.980;24.336;2023-07-13T05:06:04;19.40;99.90
28654;DHT22;24320;56.980;24.336;2023-07-13T05:08:32;19.60;99.90
28654;DHT22;24320;56.980;24.336;2023-07-13T05:11:02;19.80;99.90
28654;DHT22;24320;56.980;24.336;2023-07-13T05:13:30;20.00;99.90
28654;DHT22;24320;56.980;24.336;2023-07-13T05:16:02;20.30;99.90
28654;DHT22;24320;56.980;24.336;2023-07-13T05:18:30;20.50;99.90
28654;DHT22;24320;56.980;24.336;2023-07-13T05:21:04;20.60;99.90
28654;DHT22;24320;56.980;24.336;2023-07-13T05:23:33;20.80;99.90
28654;DHT22;24320;56.980;24.336;2023-07-13T05:26:00;20.90;99.90
28654;DHT22;24320;56.980;24.336;2023-07-13T05:28:29;20.90;99.90
28654;DHT22;24320;56.980;24.336;2023-07-13T05:30:57;20.80;99.90
28654;DHT22;24320;56.980;24.336;2023-07-13T05:33:25;20.80;99.90
28654;DHT22;24320;56.980;24.336;2023-07-13T05:35:52;20.80;99.90
28654;DHT22;24320;56.980;24.336;2023-07-13T05:38:19;20.70;99.90
28654;DHT22;24320;56.980;24.336;2023-07-13T05:40:46;20.60;99.90
28654;DHT22;24320;56.980;24.336;2023-07-13T05:43:14;20.60;99.90
28654;DHT22;24320;56.980;24.336;2023-07-13T05:45:41;20.70;99.90
28654;DHT22;24320;56.980;24.336;2023-07-13T05:48:09;20.80;99.90
28654;DHT22;24320;56.980;24.336;2023-07-13T05:50:36;20.80;99.90
28654;DHT22;24320;56.980;24.336;2023-07-13T05:53:03;20.80;99.90
28654;DHT22;24320;56.980;24.336;2023-07-13T05:55:31;20.90;99.90
28654;DHT22;24320;56.980;24.336;2023-07-13T05:57:59;21.00;99.90
28654;DHT22;24320;56.980;24.336;2023-07-13T06:00:26;21.20;99.90
28654;DHT22;24320;56.980;24.336;2023-07-13T06:02:54;21.40;99.90
28654;DHT22;24320;56.980;24.336;2023-07-13T06:05:22;21.50;99.90
28654;DHT22;24320;56.980;24.336;2023-07-13T06:07:49;21.60;99.90
28654;DHT22;24320;56.980;24.336;2023-07-13T06:10:17;21.70;99.90
28654;DHT22;24320;56.980;24.336;2023-07-13T06:12:44;21.80;99.90
28654;DHT22;24320;56.980;24.336;2023-07-13T06:15:12;21.80;99.90
28654;DHT22;24320;56.980;24.336;2023-07-13T06:17:39;21.80;99.90
28654;DHT22;24320;56.980;24.336;2023-07-13T06:20:07;21.80;99.90
28654;DHT22;24320;56.980;24.336;2023-07-13T06:22:34;21.80;99.90
28654;DHT22;24320;56.980;24.336;2023-07-13T06:25:05;21.90;99.90
28654;DHT22;24320;56.980;24.336;2023-07-13T06:27:32;21.80;99.90
28654;DHT22;24320;56.980;24.336;2023-07-13T06:29:59;21.60;99.90
28654;DHT22;24320;56.980;24.336;2023-07-13T06:32:26;21.40;99.90
28654;DHT22;24320;56.980;24.336;2023-07-13T06:34:53;21.20;99.90
28654;DHT22;24320;56.980;24.336;2023-07-13T06:37:20;21.10;99.90
28654;DHT22;24320;56.980;24.336;2023-07-13T06:39:47;21.00;99.90
28654;DHT22;24320;56.980;24.336;2023-07-13T06:42:16;20.90;99.90
28654;DHT22;24320;56.980;24.336;2023-07-13T06:44:43;20.80;99.90
28654;DHT22;24320;56.980;24.336;2023-07-13T06:47:11;20.90;99.90
28654;DHT22;24320;56.980;24.336;2023-07-13T06:49:38;20.90;99.90
28654;DHT22;24320;56.980;24.336;2023-07-13T06:52:05;20.90;99.90
28654;DHT22;24320;56.980;24.336;2023-07-13T06:54:33;20.90;99.90
28654;DHT22;24320;56.980;24.336;2023-07-13T06:57:00;21.10;99.90
28654;DHT22;24320;56.980;24.336;2023-07-13T06:59:27;21.20;99.90
28654;DHT22;24320;56.980;24.336;2023-07-13T07:01:54;21.40;99.90
28654;DHT22;24320;56.980;24.336;2023-07-13T07:04:21;21.50;99.90
28654;DHT22;24320;56.980;24.336;2023-07-13T07:06:48;21.60;99.90
28654;DHT22;24320;56.980;24.336;2023-07-13T07:09:16;21.80;99.90
28654;DHT22;24320;56.980;24.336;2023-07-13T07:11:43;22.00;99.90
28654;DHT22;24320;56.980;24.336;2023-07-13T07:14:28;22.30;99.90
28654;DHT22;24320;56.980;24.336;2023-07-13T07:16:55;22.40;99.90
28654;DHT22;24320;56.980;24.336;2023-07-13T07:19:22;22.60;99.90
28654;DHT22;24320;56.980;24.336;2023-07-13T07:21:49;22.90;99.90
28654;DHT22;24320;56.980;24.336;2023-07-13T07:24:16;22.90;99.90
28654;DHT22;24320;56.980;24.336;2023-07-13T07:26:43;22.80;99.90
28654;DHT22;24320;56.980;24.336;2023-07-13T07:29:13;22.50;99.90
28654;DHT22;24320;56.980;24.336;2023-07-13T07:31:43;22.20;99.90
28654;DHT22;24320;56.980;24.336;2023-07-13T07:34:13;22.10;99.90
28654;DHT22;24320;56.980;24.336;2023-07-13T07:36:40;22.20;99.90
28654;DHT22;24320;56.980;24.336;2023-07-13T07:39:10;22.20;99.90
28654;DHT22;24320;56.980;24.336;2023-07-13T07:41:38;22.20;99.90
28654;DHT22;24320;56.980;24.336;2023-07-13T07:44:08;22.10;99.90
28654;DHT22;24320;56.980;24.336;2023-07-13T07:46:36;22.20;99.90
28654;DHT22;24320;56.980;24.336;2023-07-13T07:49:09;22.40;99.90
28654;DHT22;24320;56.980;24.336;2023-07-13T07:51:37;22.40;99.90
28654;DHT22;24320;56.980;24.336;2023-07-13T07:54:05;22.50;99.90
28654;DHT22;24320;56.980;24.336;2023-07-13T07:56:33;22.60;99.90
28654;DHT22;24320;56.980;24.336;2023-07-13T07:59:02;22.50;99.90
28654;DHT22;24320;56.980;24.336;2023-07-13T08:01:32;22.30;99.90
28654;DHT22;24320;56.980;24.336;2023-07-13T08:04:02;22.10;99.90
28654;DHT22;24320;56.980;24.336;2023-07-13T08:06:33;22.00;99.90
28654;DHT22;24320;56.980;24.336;2023-07-13T08:09:03;22.20;99.90
28654;DHT22;24320;56.980;24.336;2023-07-13T08:11:33;22.40;99.90
28654;DHT22;24320;56.980;24.336;2023-07-13T08:14:03;22.60;99.90
28654;DHT22;24320;56.980;24.336;2023-07-13T08:16:30;22.80;99.90
28654;DHT22;24320;56.980;24.336;2023-07-13T08:19:00;23.00;99.90
28654;DHT22;24320;56.980;24.336;2023-07-13T08:21:27;23.10;99.90
28654;DHT22;24320;56.980;24.336;2023-07-13T08:23:55;23.20;99.90
28654;DHT22;24320;56.980;24.336;2023-07-13T08:26:22;23.20;99.90
28654;DHT22;24320;56.980;24.336;2023-07-13T08:28:49;23.10;99.90
28654;DHT22;24320;56.980;24.336;2023-07-13T08:31:17;22.90;99.90
28654;DHT22;24320;56.980;24.336;2023-07-13T08:33:44;22.90;99.90
28654;DHT22;24320;56.980;24.336;2023-07-13T08:36:11;23.00;99.90
28654;DHT22;24320;56.980;24.336;2023-07-13T08:38:38;23.10;99.90
28654;DHT22;24320;56.980;24.336;2023-07-13T08:41:14;23.30;99.90
28654;DHT22;24320;56.980;24.336;2023-07-13T08:43:46;23.30;99.90
28654;DHT22;24320;56.980;24.336;2023-07-13T08:49:19;23.40;99.90
28654;DHT22;24320;56.980;24.336;2023-07-13T08:51:59;23.40;99.90
28654;DHT22;24320;56.980;24.336;2023-07-13T08:54:32;23.30;99.90
28654;DHT22;24320;56.980;24.336;2023-07-13T08:57:10;23.40;99.90
28654;DHT22;24320;56.980;24.336;2023-07-13T08:59:39;23.40;99.90
28654;DHT22;24320;56.980;24.336;2023-07-13T09:02:30;23.30;99.90
28654;DHT22;24320;56.980;24.336;2023-07-13T09:05:03;23.40;99.90
28654;DHT22;24320;56.980;24.336;2023-07-13T09:15:32;24.00;99.90
28654;DHT22;24320;56.980;24.336;2023-07-13T09:20:39;25.00;99.90
28654;DHT22;24320;56.980;24.336;2023-07-13T09:23:14;25.10;99.90
28654;DHT22;24320;56.980;24.336;2023-07-13T09:25:42;25.10;99.90
28654;DHT22;24320;56.980;24.336;2023-07-13T09:28:28;24.80;99.90
28654;DHT22;24320;56.980;24.336;2023-07-13T09:31:01;24.60;99.90
28654;DHT22;24320;56.980;24.336;2023-07-13T09:33:30;24.20;99.90
28654;DHT22;24320;56.980;24.336;2023-07-13T09:35:58;23.80;99.90
28654;DHT22;24320;56.980;24.336;2023-07-13T09:38:28;23.80;99.90
28654;DHT22;24320;56.980;24.336;2023-07-13T09:41:01;23.90;99.90
28654;DHT22;24320;56.980;24.336;2023-07-13T09:43:30;24.20;99.90
28654;DHT22;24320;56.980;24.336;2023-07-13T09:45:57;24.50;99.90
28654;DHT22;24320;56.980;24.336;2023-07-13T09:48:24;24.80;99.90
28654;DHT22;24320;56.980;24.336;2023-07-13T09:50:55;25.00;99.90
28654;DHT22;24320;56.980;24.336;2023-07-13T09:53:23;25.20;99.60
28654;DHT22;24320;56.980;24.336;2023-07-13T09:55:51;25.10;99.90
28654;DHT22;24320;56.980;24.336;2023-07-13T09:58:25;25.10;99.90
28654;DHT22;24320;56.980;24.336;2023-07-13T10:00:56;25.20;99.90
28654;DHT22;24320;56.980;24.336;2023-07-13T10:03:27;25.50;99.90
28654;DHT22;24320;56.980;24.336;2023-07-13T10:05:54;25.50;98.30
28654;DHT22;24320;56.980;24.336;2023-07-13T10:08:28;25.40;99.90
28654;DHT22;24320;56.980;24.336;2023-07-13T10:11:14;25.30;98.90
28654;DHT22;24320;56.980;24.336;2023-07-13T10:13:50;25.20;99.90
28654;DHT22;24320;56.980;24.336;2023-07-13T10:16:17;25.20;99.90
28654;DHT22;24320;56.980;24.336;2023-07-13T10:18:49;25.10;98.80
28654;DHT22;24320;56.980;24.336;2023-07-13T10:21:21;25.10;99.90
28654;DHT22;24320;56.980;24.336;2023-07-13T10:23:55;25.30;99.90
28654;DHT22;24320;56.980;24.336;2023-07-13T10:26:29;25.50;98.20
28654;DHT22;24320;56.980;24.336;2023-07-13T10:29:03;25.20;98.70
28654;DHT22;24320;56.980;24.336;2023-07-13T10:31:31;25.10;98.60
28654;DHT22;24320;56.980;24.336;2023-07-13T10:33:58;24.80;99.80
28654;DHT22;24320;56.980;24.336;2023-07-13T10:39:02;24.80;99.10
28654;DHT22;24320;56.980;24.336;2023-07-13T10:41:32;24.70;99.90
28654;DHT22;24320;56.980;24.336;2023-07-13T10:44:01;24.70;99.10
28654;DHT22;24320;56.980;24.336;2023-07-13T10:46:28;24.60;99.00
28654;DHT22;24320;56.980;24.336;2023-07-13T10:49:01;24.50;99.90
28654;DHT22;24320;56.980;24.336;2023-07-13T10:51:28;24.50;99.60
28654;DHT22;24320;56.980;24.336;2023-07-13T10:54:20;24.40;99.20
28654;DHT22;24320;56.980;24.336;2023-07-13T10:57:39;24.40;99.40
28654;DHT22;24320;56.980;24.336;2023-07-13T10:59:47;24.40;99.90
28654;DHT22;24320;56.980;24.336;2023-07-13T11:02:26;24.50;99.90
28654;DHT22;24320;56.980;24.336;2023-07-13T11:04:56;24.60;98.40
28654;DHT22;24320;56.980;24.336;2023-07-13T11:07:29;24.60;97.90
28654;DHT22;24320;56.980;24.336;2023-07-13T11:09:58;24.60;98.90
28654;DHT22;24320;56.980;24.336;2023-07-13T11:13:27;24.60;98.10
28654;DHT22;24320;56.980;24.336;2023-07-13T11:15:29;24.70;98.20
28654;DHT22;24320;56.980;24.336;2023-07-13T11:17:56;24.70;97.00
28654;DHT22;24320;56.980;24.336;2023-07-13T11:20:36;24.60;97.00
28654;DHT22;24320;56.980;24.336;2023-07-13T11:23:19;24.60;99.00
28654;DHT22;24320;56.980;24.336;2023-07-13T11:25:47;24.90;97.00
28654;DHT22;24320;56.980;24.336;2023-07-13T11:28:17;25.00;98.50
28654;DHT22;24320;56.980;24.336;2023-07-13T11:36:19;25.40;97.50
28654;DHT22;24320;56.980;24.336;2023-07-13T11:39:02;25.40;95.60
28654;DHT22;24320;56.980;24.336;2023-07-13T11:42:12;25.40;96.50
28654;DHT22;24320;56.980;24.336;2023-07-13T11:44:33;25.40;97.80
28654;DHT22;24320;56.980;24.336;2023-07-13T11:47:10;25.40;95.20
28654;DHT22;24320;56.980;24.336;2023-07-13T11:49:45;25.20;94.60
28654;DHT22;24320;56.980;24.336;2023-07-13T11:52:17;25.20;94.60
28654;DHT22;24320;56.980;24.336;2023-07-13T11:54:50;25.10;95.50
28654;DHT22;24320;56.980;24.336;2023-07-13T11:57:34;25.30;95.50
28654;DHT22;24320;56.980;24.336;2023-07-13T12:00:13;25.30;95.40
28654;DHT22;24320;56.980;24.336;2023-07-13T12:02:47;25.30;96.30
28654;DHT22;24320;56.980;24.336;2023-07-13T12:05:20;25.50;96.10
28654;DHT22;24320;56.980;24.336;2023-07-13T12:07:50;25.60;95.00
28654;DHT22;24320;56.980;24.336;2023-07-13T12:10:25;25.70;94.30
28654;DHT22;24320;56.980;24.336;2023-07-13T12:13:05;25.80;95.50
28654;DHT22;24320;56.980;24.336;2023-07-13T12:15:44;25.70;94.10
28654;DHT22;24320;56.980;24.336;2023-07-13T12:18:21;25.70;94.10
28654;DHT22;24320;56.980;24.336;2023-07-13T12:20:49;25.60;93.70
28654;DHT22;24320;56.980;24.336;2023-07-13T12:23:25;25.50;95.00
28654;DHT22;24320;56.980;24.336;2023-07-13T12:25:55;25.50;94.00
28654;DHT22;24320;56.980;24.336;2023-07-13T12:36:36;24.90;96.10
28654;DHT22;24320;56.980;24.336;2023-07-13T12:41:40;25.60;96.00
28654;DHT22;24320;56.980;24.336;2023-07-13T12:44:14;26.00;93.60
28654;DHT22;24320;56.980;24.336;2023-07-13T12:46:56;26.20;94.90
28654;DHT22;24320;56.980;24.336;2023-07-13T12:52:00;26.20;94.20
28654;DHT22;24320;56.980;24.336;2023-07-13T12:54:28;26.10;93.90
28654;DHT22;24320;56.980;24.336;2023-07-13T12:56:58;25.90;94.50
28654;DHT22;24320;56.980;24.336;2023-07-13T12:59:29;25.70;95.20
28654;DHT22;24320;56.980;24.336;2023-07-13T13:01:57;25.40;95.40
28654;DHT22;24320;56.980;24.336;2023-07-13T13:04:25;25.30;96.10
28654;DHT22;24320;56.980;24.336;2023-07-13T13:07:03;25.10;96.90
28654;DHT22;24320;56.980;24.336;2023-07-13T13:09:30;24.90;97.50
28654;DHT22;24320;56.980;24.336;2023-07-13T13:11:58;24.70;97.50
28654;DHT22;24320;56.980;24.336;2023-07-13T13:14:25;24.40;98.10
28654;DHT22;24320;56.980;24.336;2023-07-13T13:16:53;24.20;98.80
28654;DHT22;24320;56.980;24.336;2023-07-13T13:19:24;23.90;98.30
28654;DHT22;24320;56.980;24.336;2023-07-13T13:21:53;23.80;99.10
28654;DHT22;24320;56.980;24.336;2023-07-13T13:24:23;23.70;99.90
28654;DHT22;24320;56.980;24.336;2023-07-13T13:26:52;23.80;99.90
28654;DHT22;24320;56.980;24.336;2023-07-13T13:29:22;23.80;99.80
28654;DHT22;24320;56.980;24.336;2023-07-13T13:31:53;23.80;99.90
28654;DHT22;24320;56.980;24.336;2023-07-13T13:34:21;23.80;99.90
28654;DHT22;24320;56.980;24.336;2023-07-13T13:36:53;23.80;99.90
28654;DHT22;24320;56.980;24.336;2023-07-13T13:39:35;23.80;99.90
28654;DHT22;24320;56.980;24.336;2023-07-13T13:42:03;23.70;99.90
28654;DHT22;24320;56.980;24.336;2023-07-13T13:44:30;23.80;99.90
28654;DHT22;24320;56.980;24.336;2023-07-13T13:46:57;23.90;99.90
28654;DHT22;24320;56.980;24.336;2023-07-13T13:52:04;23.80;99.90
28654;DHT22;24320;56.980;24.336;2023-07-13T13:54:31;23.70;99.90
28654;DHT22;24320;56.980;24.336;2023-07-13T13:56:58;23.60;99.90
28654;DHT22;24320;56.980;24.336;2023-07-13T13:59:26;23.60;99.90
28654;DHT22;24320;56.980;24.336;2023-07-13T14:01:53;23.60;99.90
28654;DHT22;24320;56.980;24.336;2023-07-13T14:04:22;23.70;99.90
28654;DHT22;24320;56.980;24.336;2023-07-13T14:06:49;23.60;99.90
28654;DHT22;24320;56.980;24.336;2023-07-13T14:09:18;23.50;99.90
28654;DHT22;24320;56.980;24.336;2023-07-13T14:11:47;23.50;99.90
28654;DHT22;24320;56.980;24.336;2023-07-13T14:14:22;23.50;99.90
28654;DHT22;24320;56.980;24.336;2023-07-13T14:16:51;23.50;99.90
28654;DHT22;24320;56.980;24.336;2023-07-13T14:19:22;23.50;99.90
28654;DHT22;24320;56.980;24.336;2023-07-13T14:21:50;23.40;99.90
28654;DHT22;24320;56.980;24.336;2023-07-13T14:24:20;23.30;99.90
28654;DHT22;24320;56.980;24.336;2023-07-13T14:26:48;23.40;99.90
28654;DHT22;24320;56.980;24.336;2023-07-13T14:29:17;23.30;99.90
28654;DHT22;24320;56.980;24.336;2023-07-13T14:31:48;23.30;99.90
28654;DHT22;24320;56.980;24.336;2023-07-13T14:34:15;23.20;99.90
28654;DHT22;24320;56.980;24.336;2023-07-13T14:36:44;23.20;99.90
28654;DHT22;24320;56.980;24.336;2023-07-13T14:39:16;23.10;99.90
28654;DHT22;24320;56.980;24.336;2023-07-13T14:41:45;23.10;99.90
28654;DHT22;24320;56.980;24.336;2023-07-13T14:44:17;23.10;99.90
28654;DHT22;24320;56.980;24.336;2023-07-13T14:46:46;23.10;99.90
28654;DHT22;24320;56.980;24.336;2023-07-13T14:49:28;23.10;99.90
28654;DHT22;24320;56.980;24.336;2023-07-13T14:51:59;23.10;99.90
28654;DHT22;24320;56.980;24.336;2023-07-13T14:54:27;23.10;99.90
28654;DHT22;24320;56.980;24.336;2023-07-13T14:56:54;22.90;99.90
28654;DHT22;24320;56.980;24.336;2023-07-13T14:59:21;22.90;99.90
28654;DHT22;24320;56.980;24.336;2023-07-13T15:01:50;22.80;99.90
28654;DHT22;24320;56.980;24.336;2023-07-13T15:04:17;22.70;99.90
28654;DHT22;24320;56.980;24.336;2023-07-13T15:06:57;22.70;99.90
28654;DHT22;24320;56.980;24.336;2023-07-13T15:09:25;22.60;99.90
28654;DHT22;24320;56.980;24.336;2023-07-13T15:11:55;22.60;99.90
28654;DHT22;24320;56.980;24.336;2023-07-13T15:14:22;22.60;99.90
28654;DHT22;24320;56.980;24.336;2023-07-13T15:16:54;22.50;99.90
28654;DHT22;24320;56.980;24.336;2023-07-13T15:19:23;22.50;99.90
28654;DHT22;24320;56.980;24.336;2023-07-13T15:21:50;22.40;99.90
28654;DHT22;24320;56.980;24.336;2023-07-13T15:24:19;22.30;99.90
28654;DHT22;24320;56.980;24.336;2023-07-13T15:26:47;22.10;99.90
28654;DHT22;24320;56.980;24.336;2023-07-13T15:29:16;22.00;99.90
28654;DHT22;24320;56.980;24.336;2023-07-13T15:31:44;22.10;99.90
28654;DHT22;24320;56.980;24.336;2023-07-13T15:34:25;22.00;99.90
28654;DHT22;24320;56.980;24.336;2023-07-13T15:36:53;22.00;99.90
28654;DHT22;24320;56.980;24.336;2023-07-13T15:39:20;21.90;99.90
28654;DHT22;24320;56.980;24.336;2023-07-13T15:41:47;21.90;99.90
28654;DHT22;24320;56.980;24.336;2023-07-13T15:44:27;21.90;99.90
28654;DHT22;24320;56.980;24.336;2023-07-13T15:46:55;21.90;99.90
28654;DHT22;24320;56.980;24.336;2023-07-13T15:49:23;21.70;99.90
28654;DHT22;24320;56.980;24.336;2023-07-13T15:51:50;21.60;99.90
28654;DHT22;24320;56.980;24.336;2023-07-13T15:54:18;21.60;99.90
28654;DHT22;24320;56.980;24.336;2023-07-13T15:56:52;21.60;99.90
28654;DHT22;24320;56.980;24.336;2023-07-13T15:59:19;21.60;99.90
28654;DHT22;24320;56.980;24.336;2023-07-13T16:01:46;21.50;99.90
28654;DHT22;24320;56.980;24.336;2023-07-13T16:04:16;21.50;99.90
28654;DHT22;24320;56.980;24.336;2023-07-13T16:06:47;21.40;99.90
28654;DHT22;24320;56.980;24.336;2023-07-13T16:09:19;21.40;99.90
28654;DHT22;24320;56.980;24.336;2023-07-13T16:11:49;21.40;99.90
28654;DHT22;24320;56.980;24.336;2023-07-13T16:14:18;21.50;99.90